Time;durP1;ratioP1;P1;durP2;ratioP2;P2;SDS_P1;SDS_P2;PMS_P1;PMS_P2;Temp;Humidity;BMP_temperature;BMP_pressure;BME280_temperature;BME280_humidity;BME280_pressure;Samples;Min_cycle;Max_cycle;Signal;HPM_P1;HPM_P2
2022/02/10 00:07:40;;;;;;;6.45;1.10;;;18.40;64.00;;;;;;4970922;28;20183;-86
2022/02/10 00:15:44;;;;;;;3.50;0.90;;;18.30;63.80;;;;;;4970558;28;20183;-87
2022/02/10 00:18:25;;;;;;;2.58;0.88;;;18.40;63.70;;;;;;4986379;28;20182;-86
2022/02/10 00:20:56;;;;;;;2.95;0.95;;;18.30;63.80;;;;;;4942906;28;20180;-87
2022/02/10 00:23:43;;;;;;;2.10;0.88;;;18.30;63.70;;;;;;4965731;28;20187;-86
2022/02/10 00:34:13;;;;;;;1.77;0.80;;;18.30;63.00;;;;;;5000455;28;20372;-86
2022/02/10 00:34:22;;;;;;;4.38;1.00;;;18.30;64.20;;;;;;5014931;28;20161;-87
2022/02/10 00:42:06;;;;;;;3.47;0.90;;;18.30;64.30;;;;;;5014731;28;20227;-86
2022/02/10 00:44:32;;;;;;;1.40;1.02;;;18.20;64.30;;;;;;4997096;28;20183;-86
2022/02/10 00:47:01;;;;;;;2.30;0.90;;;18.20;63.70;;;;;;4997030;28;20183;-87
2022/02/10 00:49:27;;;;;;;3.50;1.00;;;18.30;64.30;;;;;;4980381;28;20215;-86
2022/02/10 00:51:54;;;;;;;2.00;1.00;;;18.20;63.40;;;;;;4997357;28;20206;-86
2022/02/10 00:54:24;;;;;;;1.60;0.80;;;18.20;63.60;;;;;;4981221;28;20623;-86
2022/02/10 00:56:49;;;;;;;1.98;0.70;;;18.20;64.30;;;;;;4997175;28;20264;-86
2022/02/10 00:59:38;;;;;;;2.85;1.10;;;18.20;64.10;;;;;;4965223;28;20254;-86
2022/02/10 01:12:46;;;;;;;4.45;0.88;;;18.20;63.80;;;;;;4998923;28;20187;-86
2022/02/10 01:31:20;;;;;;;2.80;0.80;;;18.10;63.60;;;;;;4968372;28;20218;-86
2022/02/10 01:33:46;;;;;;;3.72;1.00;;;18.10;63.80;;;;;;4947472;28;20183;-86
2022/02/10 01:36:12;;;;;;;2.08;0.70;;;18.20;63.70;;;;;;4980343;28;20525;-86
2022/02/10 01:38:38;;;;;;;2.63;0.90;;;18.10;64.20;;;;;;4980034;28;20163;-86
2022/02/10 02:05:30;;;;;;;1.70;0.90;;;18.10;64.30;;;;;;4968779;28;20191;-86
2022/02/10 02:07:56;;;;;;;2.72;0.93;;;18.10;63.80;;;;;;4965791;28;20634;-86
2022/02/10 02:10:23;;;;;;;3.60;1.17;;;18.10;63.70;;;;;;4979783;28;20241;-86
2022/02/10 02:12:50;;;;;;;1.67;0.88;;;18.10;64.10;;;;;;4962961;28;20190;-86
2022/02/10 02:15:20;;;;;;;2.90;1.00;;;18.10;63.50;;;;;;4946908;28;20615;-87
2022/02/10 02:17:47;;;;;;;2.25;1.00;;;18.00;63.80;;;;;;4963125;28;20210;-86
2022/02/10 02:20:14;;;;;;;1.77;0.90;;;18.10;64.00;;;;;;4946573;28;20554;-86
2022/02/10 02:22:41;;;;;;;1.52;0.80;;;18.00;64.00;;;;;;4946506;28;20298;-85
2022/02/10 02:25:07;;;;;;;2.70;0.70;;;18.10;64.20;;;;;;4962198;28;20292;-86
2022/02/10 02:27:46;;;;;;;3.72;1.00;;;18.00;63.70;;;;;;4995610;28;20266;-86
2022/02/10 02:30:23;;;;;;;2.15;0.73;;;18.10;64.20;;;;;;4996023;28;20261;-86
2022/02/10 02:33:16;;;;;;;2.40;1.00;;;18.00;63.60;;;;;;4979970;28;20205;-86
2022/02/10 02:36:06;;;;;;;1.75;0.90;;;18.00;63.30;;;;;;4998370;28;20171;-86
2022/02/10 02:38:46;;;;;;;2.35;0.70;;;18.10;63.70;;;;;;5001614;28;20175;-86
2022/02/10 03:05:24;;;;;;;2.35;0.90;;;18.00;63.80;;;;;;4971842;28;20191;-86
2022/02/10 03:07:55;;;;;;;2.13;0.80;;;18.00;63.80;;;;;;4970962;28;20187;-86
2022/02/10 03:10:40;;;;;;;1.17;0.68;;;18.10;63.40;;;;;;4983064;28;20221;-86
2022/02/10 03:13:11;;;;;;;1.70;0.77;;;18.00;63.70;;;;;;4973555;28;20630;-86
2022/02/10 03:15:51;;;;;;;1.95;0.90;;;18.00;64.00;;;;;;4967009;28;20741;-86
2022/02/10 03:18:28;;;;;;;1.40;0.73;;;18.00;63.50;;;;;;5000972;28;20152;-86
2022/02/10 03:21:19;;;;;;;2.97;0.70;;;18.10;63.60;;;;;;5001160;28;20197;-86
2022/02/10 04:01:42;;;;;;;3.05;1.00;;;18.00;64.00;;;;;;4970167;28;20179;-86
2022/02/10 04:09:43;;;;;;;1.88;1.02;;;17.90;63.80;;;;;;4955193;28;20211;-86
2022/02/10 04:17:56;;;;;;;1.77;0.80;;;17.90;63.80;;;;;;4984207;28;20195;-86
2022/02/10 04:25:56;;;;;;;2.08;0.90;;;17.90;63.60;;;;;;5014770;28;20230;-87
2022/02/10 04:28:50;;;;;;;2.22;0.77;;;18.00;63.70;;;;;;4969558;28;20183;-86
2022/02/10 04:40:13;;;;;;;2.38;0.80;;;17.80;63.60;;;;;;4999446;28;20163;-86
2022/02/10 04:53:06;;;;;;;1.92;0.60;;;17.90;63.00;;;;;;4999913;28;20164;-86
2022/02/10 04:58:36;;;;;;;1.23;0.63;;;17.90;63.20;;;;;;4983359;28;20646;-86
2022/02/10 05:07:01;;;;;;;1.85;0.82;;;17.90;63.50;;;;;;4983806;28;20189;-86
2022/02/10 05:12:39;;;;;;;1.15;0.70;;;17.90;63.30;;;;;;4999489;28;20162;-86
2022/02/10 05:15:17;;;;;;;2.13;0.70;;;17.90;63.30;;;;;;4971958;28;20183;-86
2022/02/10 05:17:50;;;;;;;2.47;0.82;;;17.90;63.50;;;;;;4999286;28;20170;-86
2022/02/10 05:33:45;;;;;;;1.77;0.70;;;17.90;62.30;;;;;;4983144;28;20189;-86
2022/02/10 05:36:13;;;;;;;2.13;1.00;;;18.00;62.30;;;;;;4949944;28;20194;-86
2022/02/10 05:41:50;;;;;;;0.77;0.52;;;18.10;61.90;;;;;;4997823;28;20164;-86
2022/02/10 05:47:07;;;;;;;2.38;1.05;;;18.10;61.90;;;;;;4999234;28;20155;-86
2022/02/10 05:57:48;;;;;;;3.20;0.70;;;18.20;61.10;;;;;;4999478;28;20162;-85
2022/02/10 07:07:42;;;;;;;1.90;0.70;;;18.40;59.20;;;;;;4990240;28;20727;-83
2022/02/10 07:13:27;;;;;;;1.42;0.70;;;18.40;60.10;;;;;;5003871;28;20159;-84
2022/02/10 07:53:51;;;;;;;1.58;0.50;;;18.60;58.00;;;;;;5016122;28;20174;-85
2022/02/10 08:54:58;;;;;;;2.08;0.60;;;18.70;56.80;;;;;;4999309;28;20744;-84
2022/02/10 08:57:37;;;;;;;1.10;0.68;;;18.70;56.50;;;;;;4983456;28;20163;-85
2022/02/10 09:00:37;;;;;;;0.98;0.50;;;18.70;57.20;;;;;;4982624;28;20201;-85
2022/02/10 09:03:12;;;;;;;0.38;0.30;;;18.70;56.90;;;;;;4999700;28;20187;-85
2022/02/10 09:05:48;;;;;;;1.10;0.80;;;18.80;56.80;;;;;;5014545;28;20527;-84
2022/02/10 09:11:39;;;;;;;1.38;0.52;;;18.70;57.70;;;;;;5000190;28;20175;-85
2022/02/10 09:59:36;;;;;;;1.20;0.57;;;18.90;56.50;;;;;;4980384;28;20171;-84
2022/02/10 10:02:09;;;;;;;1.98;0.60;;;19.00;55.90;;;;;;4979857;28;20172;-84
2022/02/10 10:04:42;;;;;;;0.52;0.40;;;18.90;56.40;;;;;;4962844;28;20622;-84
2022/02/10 10:07:27;;;;;;;1.77;0.50;;;18.90;56.90;;;;;;4979748;28;20607;-84
2022/02/10 10:10:40;;;;;;;1.33;0.70;;;19.00;56.70;;;;;;4978775;28;20219;-85
2022/02/10 10:16:22;;;;;;;1.45;0.47;;;19.00;57.10;;;;;;4968215;28;20190;-84
2022/02/10 10:19:06;;;;;;;1.45;0.57;;;18.90;55.90;;;;;;4981372;28;20207;-84
2022/02/10 10:21:27;;;;;;;1.10;0.60;;;19.00;56.00;;;;;;4996379;28;20175;-84
2022/02/10 10:24:12;;;;;;;0.73;0.55;;;19.10;55.80;;;;;;4971491;28;20180;-84
2022/02/10 10:52:14;;;;;;;1.25;0.60;;;19.10;55.80;;;;;;4979557;28;20670;-84
2022/02/10 10:54:50;;;;;;;1.45;0.70;;;19.10;55.10;;;;;;4977964;28;20619;-84
2022/02/10 10:57:23;;;;;;;1.02;0.60;;;19.10;56.00;;;;;;4962133;28;20186;-83
2022/02/10 11:00:36;;;;;;;1.08;0.68;;;19.10;56.60;;;;;;4965472;28;20309;-84
2022/02/10 11:38:28;;;;;;;1.33;0.50;;;19.10;55.80;;;;;;4982598;28;20247;-87
2022/02/10 11:41:32;;;;;;;1.88;0.47;;;19.10;56.00;;;;;;4965749;28;20167;-86
2022/02/10 11:44:16;;;;;;;0.90;0.50;;;19.10;56.40;;;;;;4982006;28;20218;-87
2022/02/10 11:47:41;;;;;;;1.83;0.52;;;19.10;56.00;;;;;;4974686;28;20164;-88
2022/02/10 12:43:45;;;;;;;2.83;0.80;;;19.30;54.40;;;;;;4954808;28;20223;-84
2022/02/10 13:33:01;;;;;;;2.40;0.65;;;19.40;54.80;;;;;;4983261;28;20222;-85
2022/02/10 13:35:46;;;;;;;7.10;0.75;;;19.40;55.30;;;;;;4985585;28;20196;-83
2022/02/10 14:12:51;;;;;;;4.32;0.55;;;19.40;56.40;;;;;;4998922;28;20229;-83
2022/02/10 14:18:21;;;;;;;2.55;0.77;;;19.40;54.70;;;;;;4986321;28;20185;-83
2022/02/10 14:26:30;;;;;;;1.88;0.80;;;19.40;55.30;;;;;;5007936;28;20223;-83
2022/02/10 14:28:58;;;;;;;5.15;0.55;;;19.40;55.10;;;;;;4997608;28;20336;-81
2022/02/10 14:31:25;;;;;;;1.65;0.68;;;19.40;56.40;;;;;;4978619;28;20183;-82
2022/02/10 14:33:51;;;;;;;4.38;0.77;;;19.50;57.60;;;;;;5002208;28;20226;-83
2022/02/10 14:36:25;;;;;;;2.45;0.80;;;19.40;57.60;;;;;;5018491;28;20197;-81
2022/02/10 14:42:15;;;;;;;2.70;0.80;;;19.40;57.30;;;;;;5002018;28;20237;-81
2022/02/10 15:11:40;;;;;;;2.00;0.50;;;19.50;57.30;;;;;;5001347;28;20180;-83
2022/02/10 15:54:29;;;;;;;3.35;0.73;;;19.40;57.00;;;;;;5001695;28;20591;-82
2022/02/10 16:14:11;;;;;;;4.60;0.73;;;19.40;57.90;;;;;;5002386;28;20163;-82
2022/02/10 16:18:43;;;;;;;3.80;0.60;;;19.40;56.70;;;;;;5004318;28;20174;-83
2022/02/10 16:21:12;;;;;;;3.30;0.70;;;19.40;56.30;;;;;;5002644;28;20182;-82
2022/02/10 16:23:37;;;;;;;3.60;1.10;;;19.40;58.00;;;;;;5000845;28;20223;-83
2022/02/10 16:28:44;;;;;;;4.75;0.73;;;19.40;57.90;;;;;;4983440;28;20164;-81
2022/02/10 16:31:12;;;;;;;4.53;0.70;;;19.50;56.00;;;;;;4981668;28;20207;-82
2022/02/10 16:33:38;;;;;;;2.30;0.82;;;19.50;58.00;;;;;;4965255;28;20207;-82
2022/02/10 16:36:05;;;;;;;3.03;0.65;;;19.50;57.70;;;;;;4980698;28;20203;-83
2022/02/10 16:38:32;;;;;;;2.90;0.60;;;19.50;56.20;;;;;;4982033;28;20195;-83
2022/02/10 16:40:58;;;;;;;2.40;0.80;;;19.50;56.00;;;;;;4979622;28;20663;-83
2022/02/10 16:43:23;;;;;;;3.65;0.65;;;19.50;57.70;;;;;;4979301;28;20188;-82
2022/02/10 16:45:50;;;;;;;2.88;0.75;;;19.50;57.60;;;;;;4979670;28;20187;-83
2022/02/10 16:48:17;;;;;;;2.70;0.68;;;19.50;57.30;;;;;;4978857;28;20161;-82
2022/02/10 16:50:45;;;;;;;2.33;0.70;;;19.50;57.00;;;;;;4963867;28;20238;-83
2022/02/10 16:53:19;;;;;;;5.00;0.80;;;19.50;57.80;;;;;;4979646;28;20163;-83
2022/02/10 16:58:32;;;;;;;2.53;0.65;;;19.50;57.30;;;;;;5002929;28;20178;-83
2022/02/10 17:01:25;;;;;;;5.13;1.25;;;19.50;57.40;;;;;;5000384;28;20173;-83
2022/02/10 17:04:06;;;;;;;3.03;0.75;;;19.50;57.60;;;;;;5003010;28;20175;-84
2022/02/10 17:15:12;;;;;;;5.03;1.05;;;19.60;58.00;;;;;;5001863;28;20159;-81
2022/02/10 17:20:24;;;;;;;4.72;0.82;;;19.60;58.70;;;;;;5002375;28;20159;-85
2022/02/10 17:25:38;;;;;;;4.22;0.65;;;19.60;57.00;;;;;;5002019;28;20227;-84
2022/02/10 17:28:06;;;;;;;3.80;0.82;;;19.60;57.00;;;;;;5000010;28;20168;-84
2022/02/10 17:30:58;;;;;;;3.33;1.00;;;19.60;57.50;;;;;;4999097;28;20199;-83
2022/02/10 17:33:27;;;;;;;4.30;1.17;;;19.60;57.60;;;;;;5002360;28;20171;-84
2022/02/10 17:36:05;;;;;;;5.68;1.27;;;19.60;57.00;;;;;;4982905;28;20608;-83
2022/02/10 17:41:34;;;;;;;6.45;1.52;;;19.60;58.30;;;;;;5015469;28;20182;-82
2022/02/10 17:44:10;;;;;;;5.22;0.90;;;19.60;58.40;;;;;;5000606;28;20179;-83
2022/02/10 17:46:42;;;;;;;6.13;1.10;;;19.50;58.20;;;;;;5015952;28;20242;-82
2022/02/10 17:52:10;;;;;;;4.63;1.00;;;19.60;58.30;;;;;;4999931;28;20155;-82
2022/02/10 17:54:36;;;;;;;1.95;0.75;;;19.60;58.20;;;;;;5000367;28;20155;-81
2022/02/10 17:57:05;;;;;;;4.95;1.20;;;19.50;59.80;;;;;;4982538;28;20214;-84
2022/02/10 17:59:33;;;;;;;6.80;1.55;;;19.60;59.20;;;;;;5000549;28;20190;-83
2022/02/10 18:02:03;;;;;;;2.95;0.90;;;19.60;59.00;;;;;;5000036;28;20159;-83
2022/02/10 18:04:29;;;;;;;3.63;0.90;;;19.60;58.90;;;;;;4981241;28;20246;-84
2022/02/10 18:06:58;;;;;;;7.22;1.15;;;19.60;58.50;;;;;;4997878;28;20164;-81
2022/02/10 18:14:49;;;;;;;4.85;1.10;;;19.60;60.20;;;;;;5001157;28;20160;-80
2022/02/10 18:17:28;;;;;;;6.72;1.30;;;19.60;59.90;;;;;;5015908;28;20245;-82
2022/02/10 18:19:59;;;;;;;3.72;1.00;;;19.70;59.90;;;;;;4999213;28;20185;-82
2022/02/10 18:25:20;;;;;;;3.38;1.08;;;19.80;59.60;;;;;;5019267;28;20247;-82
2022/02/10 18:28:06;;;;;;;7.18;1.40;;;19.70;58.50;;;;;;5034540;28;20178;-83
2022/02/10 18:33:24;;;;;;;3.90;1.10;;;19.70;59.80;;;;;;5003451;28;20278;-83
2022/02/10 19:05:48;;;;;;;7.45;1.23;;;19.50;60.50;;;;;;5002800;28;20634;-84
2022/02/10 19:08:11;;;;;;;4.75;1.20;;;19.60;60.40;;;;;;5004296;28;20266;-83
2022/02/10 19:10:45;;;;;;;5.07;1.42;;;19.50;60.50;;;;;;4999888;28;20784;-85
2022/02/10 19:13:17;;;;;;;9.50;1.48;;;19.50;59.50;;;;;;4983801;28;20785;-84
2022/02/10 19:15:45;;;;;;;5.60;1.13;;;19.60;60.70;;;;;;4983900;28;20185;-85
2022/02/10 19:18:13;;;;;;;3.42;1.15;;;19.60;60.30;;;;;;4982642;28;20175;-83
2022/02/10 19:20:41;;;;;;;6.53;1.10;;;19.60;58.90;;;;;;5001914;28;20305;-84
2022/02/10 19:23:10;;;;;;;4.40;0.90;;;19.60;59.40;;;;;;5001865;28;20322;-84
2022/02/10 19:25:36;;;;;;;5.72;1.42;;;19.60;60.40;;;;;;5002435;28;20229;-84
2022/02/10 19:28:07;;;;;;;5.60;1.20;;;19.60;60.10;;;;;;5023356;28;20174;-84
2022/02/10 19:30:38;;;;;;;5.68;1.20;;;19.60;60.10;;;;;;5013021;28;20705;-85
2022/02/10 19:33:10;;;;;;;4.00;0.80;;;19.60;60.20;;;;;;5005357;28;20190;-84
2022/02/10 19:35:44;;;;;;;3.05;1.13;;;19.50;60.10;;;;;;4987761;28;20194;-84
2022/02/10 19:38:15;;;;;;;5.43;1.40;;;19.50;59.80;;;;;;4971564;28;20201;-85
2022/02/10 19:40:43;;;;;;;5.15;0.80;;;19.50;60.10;;;;;;4971085;28;20186;-84
2022/02/10 19:43:11;;;;;;;3.83;1.17;;;19.50;59.50;;;;;;5001261;28;20197;-85
2022/02/10 19:45:39;;;;;;;5.10;1.50;;;19.50;59.70;;;;;;4984035;28;20269;-84
2022/02/10 19:48:06;;;;;;;4.50;1.38;;;19.50;58.80;;;;;;5000975;28;20715;-84
2022/02/10 19:50:34;;;;;;;7.07;1.27;;;19.50;59.70;;;;;;4969148;28;20222;-85
2022/02/10 19:53:08;;;;;;;6.88;1.08;;;19.50;60.20;;;;;;4984384;28;20703;-85
2022/02/10 19:55:37;;;;;;;5.78;1.25;;;19.50;59.80;;;;;;4993096;28;20188;-84
2022/02/10 19:58:08;;;;;;;4.63;1.00;;;19.50;59.90;;;;;;4977301;28;20180;-85
2022/02/10 20:00:42;;;;;;;5.35;1.38;;;19.50;59.50;;;;;;4975141;28;20212;-85
2022/02/10 20:03:16;;;;;;;4.72;1.10;;;19.40;60.20;;;;;;4976605;28;20230;-85
2022/02/10 20:05:45;;;;;;;2.03;1.00;;;19.50;60.30;;;;;;4976788;28;20188;-85
2022/02/10 20:08:13;;;;;;;5.00;1.30;;;19.50;60.60;;;;;;4978475;28;20176;-85
2022/02/10 20:10:39;;;;;;;5.32;1.10;;;19.50;61.00;;;;;;4980154;28;20215;-86
2022/02/10 20:13:05;;;;;;;4.03;1.20;;;19.50;61.00;;;;;;4979669;28;20215;-85
2022/02/10 20:15:34;;;;;;;3.88;0.95;;;19.50;60.30;;;;;;4978429;28;20179;-85
2022/02/10 20:18:01;;;;;;;2.90;0.70;;;19.50;60.80;;;;;;4994778;28;20192;-84
2022/02/10 20:20:32;;;;;;;6.05;1.25;;;19.50;59.90;;;;;;4977952;28;20183;-85
2022/02/10 20:22:58;;;;;;;5.35;1.10;;;19.50;59.80;;;;;;4961734;28;20295;-84
2022/02/10 20:25:31;;;;;;;6.47;1.10;;;19.50;60.00;;;;;;4997061;28;20306;-85
2022/02/10 20:27:57;;;;;;;3.28;0.95;;;19.40;60.10;;;;;;4997131;28;20190;-84
2022/02/10 20:30:24;;;;;;;5.50;1.30;;;19.40;59.50;;;;;;4996901;28;20222;-84
2022/02/10 20:32:50;;;;;;;5.68;1.23;;;19.40;60.10;;;;;;4980206;28;20740;-84
2022/02/10 20:35:18;;;;;;;5.15;1.15;;;19.40;60.30;;;;;;4996290;28;20203;-83
2022/02/10 20:37:44;;;;;;;7.53;1.30;;;19.40;60.50;;;;;;5012794;28;20152;-84
2022/02/10 20:40:10;;;;;;;5.38;1.00;;;19.40;59.40;;;;;;4996726;28;20190;-84
2022/02/10 20:42:36;;;;;;;5.60;1.10;;;19.50;60.50;;;;;;4980146;28;20171;-84
2022/02/10 20:45:03;;;;;;;4.32;1.05;;;19.40;60.10;;;;;;4996813;28;20661;-84
2022/02/10 20:47:29;;;;;;;10.50;1.15;;;19.30;60.30;;;;;;4980129;28;20186;-84
2022/02/10 20:49:55;;;;;;;6.32;1.20;;;19.30;59.90;;;;;;4980039;28;20203;-83
2022/02/10 20:52:21;;;;;;;4.43;0.80;;;19.40;59.80;;;;;;4990033;28;20641;-84
2022/02/10 20:54:47;;;;;;;6.80;1.13;;;19.40;60.70;;;;;;5017027;28;20150;-84
2022/02/10 20:57:14;;;;;;;3.58;0.88;;;19.30;59.90;;;;;;5034940;28;20509;-84
2022/02/10 20:59:42;;;;;;;3.25;0.80;;;19.30;60.10;;;;;;5016826;28;20299;-84
2022/02/10 21:02:12;;;;;;;4.95;1.10;;;19.30;60.70;;;;;;4977415;28;20161;-83
2022/02/10 21:07:30;;;;;;;7.85;1.23;;;19.30;60.70;;;;;;4991693;28;20207;-83
2022/02/10 21:10:00;;;;;;;5.63;0.90;;;19.20;61.10;;;;;;4975207;28;20207;-84
2022/02/10 21:12:29;;;;;;;5.88;1.10;;;19.20;61.80;;;;;;4993082;28;20172;-84
2022/02/10 21:14:55;;;;;;;3.30;1.30;;;19.20;60.80;;;;;;4977432;28;20532;-84
2022/02/10 21:17:25;;;;;;;3.95;0.95;;;19.20;61.40;;;;;;4993345;28;20175;-84
2022/02/10 21:19:51;;;;;;;5.95;1.10;;;19.20;61.60;;;;;;4993294;28;20156;-83
2022/02/10 21:22:19;;;;;;;3.15;1.10;;;19.20;61.60;;;;;;4977246;28;20318;-85
2022/02/10 21:24:52;;;;;;;4.32;1.05;;;19.20;62.60;;;;;;4994345;28;20498;-84
2022/02/10 21:27:29;;;;;;;6.03;1.40;;;19.20;62.80;;;;;;4993404;28;20263;-84
2022/02/10 21:30:00;;;;;;;5.43;1.23;;;19.10;62.90;;;;;;4994428;28;20188;-84
2022/02/10 21:32:28;;;;;;;5.30;1.35;;;19.10;63.80;;;;;;4993362;28;20160;-84
2022/02/10 21:37:43;;;;;;;4.53;0.80;;;19.00;64.10;;;;;;4993733;28;20481;-84
2022/02/10 21:40:24;;;;;;;6.13;1.20;;;19.00;64.10;;;;;;4993350;28;20163;-84
2022/02/10 21:48:24;;;;;;;5.43;1.20;;;18.90;64.20;;;;;;4992985;28;20162;-84
2022/02/10 22:02:58;;;;;;;3.30;1.00;;;18.90;64.30;;;;;;4979234;28;20247;-84
2022/02/10 22:05:19;;;;;;;4.30;0.90;;;18.80;64.10;;;;;;4992896;28;20654;-84
2022/02/10 22:10:20;;;;;;;1.80;0.80;;;18.80;64.30;;;;;;4992985;28;20638;-84
2022/02/10 22:18:33;;;;;;;3.55;1.10;;;18.80;63.90;;;;;;4992682;28;20160;-83
2022/02/10 22:20:59;;;;;;;4.72;1.10;;;18.80;63.60;;;;;;4992720;28;20588;-84
2022/02/10 22:23:27;;;;;;;3.75;1.25;;;18.90;64.30;;;;;;4992982;28;20515;-84
2022/02/10 22:25:58;;;;;;;5.32;1.42;;;18.80;64.50;;;;;;4992339;28;20219;-84
2022/02/10 22:31:28;;;;;;;3.30;1.08;;;18.70;64.40;;;;;;4993643;28;20226;-84
2022/02/10 22:34:18;;;;;;;6.78;0.90;;;18.70;64.20;;;;;;4992398;28;20168;-84
2022/02/10 22:36:39;;;;;;;1.98;0.90;;;18.70;64.50;;;;;;4992364;28;20203;-83
2022/02/10 22:39:05;;;;;;;2.45;0.90;;;18.70;64.40;;;;;;4993581;28;20179;-84
2022/02/10 22:41:31;;;;;;;3.42;0.82;;;18.70;64.40;;;;;;4992611;28;20153;-84
2022/02/10 22:43:58;;;;;;;3.92;0.88;;;18.70;64.40;;;;;;4993525;28;20164;-83
2022/02/10 22:46:24;;;;;;;3.78;1.15;;;18.80;64.20;;;;;;4992496;28;20619;-84
2022/02/10 22:48:50;;;;;;;3.58;1.05;;;18.70;64.10;;;;;;4992424;28;20160;-84
2022/02/10 22:51:17;;;;;;;2.42;1.20;;;18.70;64.00;;;;;;4992058;28;20175;-83
2022/02/10 22:53:43;;;;;;;3.72;0.70;;;18.70;64.50;;;;;;4992825;28;20196;-84
2022/02/10 22:56:10;;;;;;;4.30;1.00;;;18.60;64.70;;;;;;4995976;28;20281;-84
2022/02/10 22:58:39;;;;;;;1.88;1.15;;;18.60;63.80;;;;;;4980160;28;20634;-84
2022/02/10 23:01:07;;;;;;;5.90;0.93;;;18.70;64.00;;;;;;4980182;28;20176;-84
2022/02/10 23:03:36;;;;;;;3.60;1.15;;;18.70;63.10;;;;;;4946778;28;20278;-83
2022/02/10 23:06:03;;;;;;;3.28;0.88;;;18.70;63.80;;;;;;4962892;28;20441;-84
2022/02/10 23:08:31;;;;;;;4.05;0.88;;;18.70;63.90;;;;;;4979262;28;20215;-83
2022/02/10 23:10:58;;;;;;;2.72;1.05;;;18.70;64.50;;;;;;4946780;28;20219;-84
2022/02/10 23:13:28;;;;;;;5.10;1.08;;;18.60;63.60;;;;;;4994762;28;20195;-83
2022/02/10 23:15:54;;;;;;;2.20;1.25;;;18.60;64.70;;;;;;4980008;28;20235;-84
2022/02/10 23:18:21;;;;;;;3.28;0.95;;;18.60;64.30;;;;;;4963146;28;20175;-84
2022/02/10 23:20:47;;;;;;;2.63;1.00;;;18.60;64.50;;;;;;4979200;28;20172;-85
2022/02/10 23:23:14;;;;;;;3.60;0.80;;;18.60;63.90;;;;;;4979695;28;20179;-83
2022/02/10 23:25:41;;;;;;;3.03;0.85;;;18.60;64.30;;;;;;4995505;28;20212;-83
2022/02/10 23:28:10;;;;;;;4.30;1.00;;;18.60;64.50;;;;;;4995492;28;20168;-83
2022/02/10 23:30:36;;;;;;;4.43;1.15;;;18.60;64.70;;;;;;4995213;28;20206;-84
2022/02/10 23:33:13;;;;;;;5.32;1.17;;;18.50;63.90;;;;;;4995514;28;20599;-84
2022/02/10 23:38:20;;;;;;;3.03;1.00;;;18.50;64.60;;;;;;4996419;28;20242;-84
2022/02/10 23:43:28;;;;;;;2.05;0.90;;;18.60;63.80;;;;;;4995385;28;20604;-84
2022/02/10 23:45:54;;;;;;;6.75;1.00;;;18.50;64.10;;;;;;4995032;28;20160;-84
2022/02/10 23:48:19;;;;;;;2.42;0.80;;;18.50;64.10;;;;;;4978796;28;20171;-83
2022/02/10 23:50:45;;;;;;;5.00;1.10;;;18.50;64.50;;;;;;4978854;28;20683;-83
2022/02/10 23:53:11;;;;;;;3.10;0.98;;;18.40;64.30;;;;;;4978652;28;20599;-84
2022/02/10 23:55:39;;;;;;;2.60;1.25;;;18.50;65.30;;;;;;4995069;28;20215;-83
